createdAt,value
2019-05-17T00:01:29.591Z,99.90
2019-05-17T00:04:01.672Z,99.90
2019-05-17T00:06:36.804Z,99.90
2019-05-17T00:09:08.875Z,99.90
2019-05-17T00:11:41.512Z,99.90
2019-05-17T00:14:13.445Z,99.90
2019-05-17T00:16:46.791Z,99.90
2019-05-17T00:19:18.771Z,99.90
2019-05-17T00:21:51.120Z,99.90
2019-05-17T00:24:23.626Z,99.90
2019-05-17T00:26:58.410Z,99.90
2019-05-17T00:29:29.547Z,99.90
2019-05-17T00:32:01.733Z,99.90
2019-05-17T00:34:34.229Z,99.90
2019-05-17T00:37:07.069Z,99.90
2019-05-17T00:39:39.588Z,99.90
2019-05-17T00:42:11.907Z,99.90
2019-05-17T00:44:44.152Z,99.90
2019-05-17T00:47:17.214Z,99.90
2019-05-17T00:49:49.137Z,99.90
2019-05-17T00:52:21.631Z,99.90
2019-05-17T00:54:56.236Z,99.90
2019-05-17T00:57:27.596Z,99.90
2019-05-17T01:00:01.711Z,99.90
2019-05-17T01:02:33.410Z,99.90
2019-05-17T01:05:06.380Z,99.90
2019-05-17T01:07:38.549Z,99.90
2019-05-17T01:10:11.175Z,99.90
2019-05-17T01:12:42.678Z,99.90
2019-05-17T01:15:16.758Z,99.90
2019-05-17T01:17:48.711Z,99.90
2019-05-17T01:20:19.986Z,99.90
2019-05-17T01:22:51.937Z,99.90
2019-05-17T01:25:24.110Z,99.90
2019-05-17T01:27:56.719Z,99.90
2019-05-17T01:30:28.656Z,99.90
2019-05-17T01:33:00.798Z,99.90
2019-05-17T01:35:32.671Z,99.90
2019-05-17T01:38:04.315Z,99.90
2019-05-17T01:40:37.324Z,99.90
2019-05-17T01:43:09.831Z,99.90
2019-05-17T01:45:41.533Z,99.90
2019-05-17T01:48:13.712Z,99.90
2019-05-17T01:50:46.500Z,99.90
2019-05-17T01:53:19.588Z,99.90
2019-05-17T01:55:51.385Z,99.90
2019-05-17T01:58:23.163Z,99.90
2019-05-17T02:00:57.151Z,99.90
2019-05-17T02:03:28.270Z,99.90
2019-05-17T02:05:59.847Z,99.90
2019-05-17T02:08:32.154Z,99.90
2019-05-17T02:11:04.126Z,99.90
2019-05-17T02:13:37.366Z,99.90
2019-05-17T02:16:09.331Z,99.90
2019-05-17T02:18:40.980Z,99.90
2019-05-17T02:21:13.562Z,99.90
2019-05-17T02:23:46.933Z,99.90
2019-05-17T02:26:19.195Z,99.90
2019-05-17T02:28:52.038Z,99.90
2019-05-17T02:31:24.727Z,99.90
2019-05-17T02:33:56.833Z,99.90
2019-05-17T02:36:28.845Z,99.90
2019-05-17T02:39:03.352Z,99.90
2019-05-17T02:41:33.611Z,99.90
2019-05-17T02:44:05.429Z,99.90
2019-05-17T02:46:37.210Z,99.90
2019-05-17T02:49:08.589Z,99.90
2019-05-17T02:51:42.881Z,99.90
2019-05-17T02:54:13.346Z,99.90
2019-05-17T02:56:45.270Z,99.90
2019-05-17T02:59:16.974Z,99.90
2019-05-17T03:01:48.553Z,99.90
2019-05-17T03:04:23.360Z,99.90
2019-05-17T03:06:53.477Z,99.90
2019-05-17T03:09:25.114Z,99.90
2019-05-17T03:11:57.217Z,99.90
2019-05-17T03:14:32.753Z,99.90
2019-05-17T03:17:04.327Z,99.90
2019-05-17T03:19:38.238Z,99.90
2019-05-17T03:22:12.917Z,99.90
2019-05-17T03:24:44.912Z,99.90
2019-05-17T03:27:16.651Z,99.90
2019-05-17T03:29:48.589Z,99.90
2019-05-17T03:32:25.920Z,99.90
2019-05-17T03:34:55.956Z,99.90
2019-05-17T03:37:33.057Z,99.90
2019-05-17T03:40:04.584Z,99.90
2019-05-17T03:42:33.632Z,99.90
2019-05-17T03:45:06.030Z,99.90
2019-05-17T03:47:37.285Z,99.90
2019-05-17T03:50:09.106Z,99.90
2019-05-17T03:52:43.812Z,99.90
2019-05-17T03:55:14.270Z,99.90
2019-05-17T03:57:46.561Z,99.90
2019-05-17T04:00:19.035Z,99.90
2019-05-17T04:02:53.749Z,99.90
2019-05-17T04:05:25.258Z,99.90
2019-05-17T04:07:58.167Z,99.90
2019-05-17T04:10:33.078Z,99.90
2019-05-17T04:13:04.414Z,99.90
2019-05-17T04:15:36.490Z,99.90
2019-05-17T04:18:08.248Z,99.90
2019-05-17T04:20:43.366Z,99.90
2019-05-17T04:23:14.628Z,99.90
2019-05-17T04:25:47.158Z,99.90
2019-05-17T04:28:22.618Z,99.90
2019-05-17T04:30:53.494Z,99.90
2019-05-17T04:33:25.674Z,99.90
2019-05-17T04:36:02.325Z,99.90
2019-05-17T04:38:33.170Z,99.90
2019-05-17T04:41:04.991Z,99.90
2019-05-17T04:43:36.027Z,99.90
2019-05-17T04:46:07.477Z,99.90
2019-05-17T04:48:39.354Z,99.90
2019-05-17T04:51:13.291Z,99.90
2019-05-17T04:53:44.766Z,99.90
2019-05-17T04:56:16.959Z,99.90
2019-05-17T04:58:50.327Z,99.90
2019-05-17T05:01:23.621Z,99.90
2019-05-17T05:03:55.926Z,99.90
2019-05-17T05:06:27.718Z,99.90
2019-05-17T05:09:02.347Z,99.90
2019-05-17T05:11:33.868Z,99.90
2019-05-17T05:14:05.950Z,99.90
2019-05-17T05:16:37.871Z,99.90
2019-05-17T05:19:09.756Z,99.90
2019-05-17T05:21:43.269Z,99.90
2019-05-17T05:24:15.661Z,99.90
2019-05-17T05:26:51.807Z,99.90
2019-05-17T05:29:23.947Z,99.90
2019-05-17T05:31:55.351Z,99.90
2019-05-17T05:34:27.096Z,99.90
2019-05-17T05:36:59.228Z,99.90
2019-05-17T05:39:31.959Z,99.90
2019-05-17T05:42:07.836Z,99.90
2019-05-17T05:44:38.505Z,99.90
2019-05-17T05:47:11.458Z,99.90
2019-05-17T05:49:43.033Z,99.90
2019-05-17T05:52:14.999Z,99.90
2019-05-17T05:54:47.394Z,99.90
2019-05-17T05:57:21.785Z,99.90
2019-05-17T05:59:53.684Z,99.90
2019-05-17T06:02:25.792Z,99.90
2019-05-17T06:04:57.361Z,99.90
2019-05-17T06:07:28.792Z,99.90
2019-05-17T06:10:02.277Z,99.90
2019-05-17T06:12:33.203Z,99.90
2019-05-17T06:15:04.699Z,99.90
2019-05-17T06:17:37.972Z,99.90
2019-05-17T06:20:11.638Z,99.90
2019-05-17T06:22:43.074Z,99.90
2019-05-17T06:25:15.903Z,99.90
2019-05-17T06:27:49.234Z,99.90
2019-05-17T06:30:21.955Z,99.90
2019-05-17T06:32:54.509Z,99.90
2019-05-17T06:35:25.461Z,99.90
2019-05-17T06:38:01.768Z,99.90
2019-05-17T06:40:32.767Z,99.90
2019-05-17T06:43:04.455Z,99.90
2019-05-17T06:45:36.114Z,99.90
2019-05-17T06:48:08.884Z,99.90
2019-05-17T06:50:43.026Z,99.90
2019-05-17T06:53:15.774Z,99.90
2019-05-17T06:55:47.281Z,99.90
2019-05-17T06:58:22.091Z,99.90
2019-05-17T07:00:52.628Z,99.90
2019-05-17T07:03:23.984Z,99.90
2019-05-17T07:05:59.511Z,99.90
2019-05-17T07:08:31.698Z,99.90
2019-05-17T07:11:04.191Z,99.90
2019-05-17T07:13:36.191Z,99.90
2019-05-17T07:16:10.166Z,99.90
2019-05-17T07:18:41.680Z,99.90
2019-05-17T07:21:15.103Z,99.90
2019-05-17T07:23:47.311Z,99.90
2019-05-17T07:26:19.751Z,99.90
2019-05-17T07:28:51.572Z,99.90
2019-05-17T07:31:23.895Z,99.90
2019-05-17T07:33:55.591Z,99.90
2019-05-17T07:36:30.694Z,99.90
2019-05-17T07:39:01.960Z,99.90
2019-05-17T07:41:33.094Z,99.90
2019-05-17T07:44:05.152Z,99.90
2019-05-17T07:46:37.240Z,99.90
2019-05-17T07:49:10.781Z,99.90
2019-05-17T07:51:42.283Z,99.90
2019-05-17T07:54:14.210Z,99.90
2019-05-17T07:56:46.150Z,99.90
2019-05-17T07:59:19.853Z,99.90
2019-05-17T08:01:50.815Z,99.90
2019-05-17T08:04:22.804Z,99.90
2019-05-17T08:06:55.554Z,99.90
2019-05-17T08:09:30.095Z,99.90
2019-05-17T08:12:01.289Z,99.90
2019-05-17T08:14:33.974Z,99.90
2019-05-17T08:17:05.367Z,99.90
2019-05-17T08:19:36.454Z,99.90
2019-05-17T08:22:09.641Z,99.90
2019-05-17T08:24:40.552Z,99.90
2019-05-17T08:27:12.162Z,99.90
2019-05-17T08:29:43.498Z,99.90
2019-05-17T08:32:15.527Z,99.90
2019-05-17T08:34:49.513Z,99.90
2019-05-17T08:37:20.467Z,99.90
2019-05-17T08:39:52.614Z,99.90
2019-05-17T08:42:23.830Z,99.90
2019-05-17T08:44:55.426Z,99.90
2019-05-17T08:47:26.463Z,99.90
2019-05-17T08:50:00.219Z,99.90
2019-05-17T08:52:30.646Z,99.90
2019-05-17T08:55:02.093Z,99.90
2019-05-17T08:57:33.906Z,99.90
2019-05-17T09:00:06.481Z,99.90
2019-05-17T09:02:40.467Z,99.90
2019-05-17T09:05:11.926Z,99.90
2019-05-17T09:07:44.435Z,99.90
2019-05-17T09:10:16.808Z,99.90
2019-05-17T09:12:50.283Z,99.90
2019-05-17T09:15:21.966Z,99.90
2019-05-17T09:17:54.165Z,99.90
2019-05-17T09:20:26.751Z,99.90
2019-05-17T09:23:00.052Z,99.90
2019-05-17T09:25:32.018Z,99.90
2019-05-17T09:28:04.903Z,99.90
2019-05-17T09:30:36.353Z,99.90
2019-05-17T09:33:07.910Z,99.90
2019-05-17T09:35:40.886Z,99.90
2019-05-17T09:38:14.856Z,99.90
2019-05-17T09:40:46.662Z,99.90
2019-05-17T09:43:20.977Z,99.90
2019-05-17T09:45:52.454Z,99.90
2019-05-17T09:48:24.444Z,99.90
2019-05-17T09:50:56.603Z,99.90
2019-05-17T09:53:27.790Z,99.90
2019-05-17T09:56:00.715Z,99.90
2019-05-17T09:58:32.479Z,99.90
2019-05-17T10:01:03.870Z,98.60
2019-05-17T10:03:36.519Z,97.20
2019-05-17T10:06:09.646Z,93.90
2019-05-17T10:08:40.782Z,92.00
2019-05-17T10:11:12.500Z,90.40
2019-05-17T10:13:45.561Z,86.60
2019-05-17T10:16:16.835Z,80.80
2019-05-17T10:18:48.742Z,79.70
2019-05-17T10:21:20.405Z,79.70
2019-05-17T10:23:51.481Z,77.70
2019-05-17T10:26:23.771Z,81.10
2019-05-17T10:28:55.850Z,79.40
2019-05-17T10:31:30.254Z,80.70
2019-05-17T10:34:01.042Z,82.00
2019-05-17T10:36:33.075Z,81.40
2019-05-17T10:39:06.166Z,82.70
2019-05-17T10:41:40.193Z,83.60
2019-05-17T10:44:11.089Z,84.50
2019-05-17T10:46:42.836Z,88.60
2019-05-17T10:49:14.434Z,87.90
2019-05-17T10:51:46.513Z,88.80
2019-05-17T10:54:20.609Z,89.90
2019-05-17T10:56:51.444Z,90.50
2019-05-17T10:59:23.438Z,93.50
2019-05-17T11:01:55.641Z,93.20
2019-05-17T11:04:27.625Z,93.50
2019-05-17T11:06:59.635Z,95.50
2019-05-17T11:09:31.351Z,94.60
2019-05-17T11:12:03.719Z,93.70
2019-05-17T11:14:48.939Z,94.00
2019-05-17T11:17:08.705Z,93.00
2019-05-17T11:19:42.925Z,91.00
2019-05-17T11:22:15.308Z,91.00
2019-05-17T11:24:48.609Z,90.00
2019-05-17T11:27:21.918Z,90.20
2019-05-17T11:29:53.390Z,91.10
2019-05-17T11:32:25.080Z,91.60
2019-05-17T11:34:57.386Z,91.90
2019-05-17T11:37:29.166Z,93.10
2019-05-17T11:40:00.922Z,94.40
2019-05-17T11:42:37.678Z,94.90
2019-05-17T11:45:09.209Z,95.70
2019-05-17T11:47:41.000Z,96.00
2019-05-17T11:50:17.639Z,97.00
2019-05-17T11:52:52.349Z,97.90
2019-05-17T11:55:29.949Z,98.80
2019-05-17T11:58:05.714Z,99.70
2019-05-17T12:00:40.809Z,99.70
2019-05-17T12:03:12.273Z,99.90
2019-05-17T12:05:43.623Z,99.90
2019-05-17T12:08:14.920Z,99.90
2019-05-17T12:10:46.879Z,99.90
2019-05-17T12:13:18.311Z,99.90
2019-05-17T12:15:49.889Z,99.90
2019-05-17T12:18:21.411Z,99.90
2019-05-17T12:20:53.000Z,99.90
2019-05-17T12:23:24.598Z,99.90
2019-05-17T12:25:56.559Z,99.90
2019-05-17T12:28:28.524Z,99.90
2019-05-17T12:31:01.092Z,99.90
2019-05-17T12:33:32.599Z,99.90
2019-05-17T12:36:04.159Z,99.90
2019-05-17T12:38:37.281Z,99.90
2019-05-17T12:41:09.479Z,99.90
2019-05-17T12:43:41.421Z,99.40
2019-05-17T12:46:14.160Z,96.60
2019-05-17T12:48:45.759Z,94.10
2019-05-17T12:51:17.479Z,91.90
2019-05-17T12:53:49.279Z,93.50
2019-05-17T12:56:20.964Z,94.30
2019-05-17T12:58:52.085Z,93.00
2019-05-17T13:01:23.601Z,91.70
2019-05-17T13:03:55.411Z,89.30
2019-05-17T13:06:27.209Z,88.90
2019-05-17T13:08:58.890Z,88.40
2019-05-17T13:11:31.269Z,85.30
2019-05-17T13:14:03.147Z,85.40
2019-05-17T13:16:34.980Z,88.90
2019-05-17T13:19:07.012Z,87.50
2019-05-17T13:21:39.399Z,87.00
2019-05-17T13:24:10.881Z,87.80
2019-05-17T13:26:43.154Z,89.00
2019-05-17T13:29:14.919Z,86.10
2019-05-17T13:31:47.880Z,86.20
2019-05-17T13:34:19.294Z,83.30
2019-05-17T13:36:50.997Z,82.10
2019-05-17T13:39:23.069Z,87.10
2019-05-17T13:41:54.295Z,80.90
2019-05-17T13:44:25.866Z,79.20
2019-05-17T13:47:00.941Z,78.30
2019-05-17T13:49:32.200Z,78.60
2019-05-17T13:52:03.318Z,77.90
2019-05-17T13:54:37.906Z,81.30
2019-05-17T13:57:12.358Z,80.20
2019-05-17T13:59:45.074Z,75.90
2019-05-17T14:02:16.922Z,77.60
2019-05-17T14:04:48.424Z,80.30
2019-05-17T14:07:19.999Z,82.30
2019-05-17T14:09:51.566Z,82.50
2019-05-17T14:12:23.445Z,87.00
2019-05-17T14:14:55.239Z,85.30
2019-05-17T14:17:26.928Z,84.40
2019-05-17T14:19:58.680Z,83.40
2019-05-17T14:22:30.599Z,81.10
2019-05-17T14:25:02.482Z,83.60
2019-05-17T14:27:33.627Z,79.30
2019-05-17T14:30:04.860Z,78.50
2019-05-17T14:32:36.484Z,79.20
2019-05-17T14:35:08.645Z,79.80
2019-05-17T14:37:40.040Z,81.70
2019-05-17T14:40:10.991Z,82.30
2019-05-17T14:42:43.403Z,81.80
2019-05-17T14:45:15.077Z,83.20
2019-05-17T14:47:47.004Z,82.40
2019-05-17T14:50:20.208Z,84.20
2019-05-17T14:52:52.454Z,83.70
2019-05-17T14:55:24.310Z,86.20
2019-05-17T14:57:56.035Z,81.30
2019-05-17T15:00:27.974Z,81.30
2019-05-17T15:02:59.971Z,83.40
2019-05-17T15:05:31.934Z,83.00
2019-05-17T15:08:04.282Z,85.60
2019-05-17T15:10:36.584Z,85.70
2019-05-17T15:13:08.571Z,85.40
2019-05-17T15:15:40.398Z,87.80
2019-05-17T15:18:12.829Z,88.90
2019-05-17T15:20:44.386Z,90.50
2019-05-17T15:23:16.949Z,90.60
2019-05-17T15:25:48.230Z,91.50
2019-05-17T15:28:19.627Z,91.90
2019-05-17T15:30:51.539Z,92.20
2019-05-17T15:33:22.770Z,93.10
2019-05-17T15:35:54.629Z,93.70
2019-05-17T15:38:25.834Z,93.50
2019-05-17T15:40:58.080Z,93.30
2019-05-17T15:43:29.729Z,92.70
2019-05-17T15:46:01.742Z,93.40
2019-05-17T15:48:33.485Z,95.00
2019-05-17T15:51:05.743Z,95.80
2019-05-17T15:53:37.250Z,96.20
2019-05-17T15:56:08.926Z,95.50
2019-05-17T15:58:41.024Z,96.80
2019-05-17T16:01:13.517Z,96.20
2019-05-17T16:03:44.984Z,97.50
2019-05-17T16:06:17.222Z,97.80
2019-05-17T16:08:48.953Z,99.00
2019-05-17T16:11:22.044Z,99.90
2019-05-17T16:13:53.392Z,99.90
2019-05-17T16:16:25.634Z,99.90
2019-05-17T16:18:57.539Z,99.90
2019-05-17T16:21:29.356Z,99.90
2019-05-17T16:24:01.204Z,99.90
2019-05-17T16:26:33.705Z,99.90
2019-05-17T16:29:04.972Z,99.90
2019-05-17T16:31:36.716Z,99.90
2019-05-17T16:34:08.022Z,99.90
2019-05-17T16:36:39.782Z,99.90
2019-05-17T16:39:11.147Z,99.90
2019-05-17T16:41:42.619Z,99.90
2019-05-17T16:44:14.739Z,99.90
2019-05-17T16:46:46.275Z,99.90
2019-05-17T16:49:17.633Z,99.90
2019-05-17T16:51:49.144Z,99.90
2019-05-17T16:54:20.284Z,99.90
2019-05-17T16:56:52.605Z,99.90
2019-05-17T16:59:24.748Z,99.90
2019-05-17T17:01:56.747Z,99.90
2019-05-17T17:04:29.308Z,99.90
2019-05-17T17:07:01.313Z,99.90
2019-05-17T17:09:33.758Z,99.90
2019-05-17T17:12:05.891Z,99.90
2019-05-17T17:14:37.164Z,99.90
2019-05-17T17:17:11.228Z,99.90
2019-05-17T17:19:41.965Z,99.90
2019-05-17T17:22:13.617Z,99.90
2019-05-17T17:24:47.165Z,99.90
2019-05-17T17:27:19.293Z,99.90
2019-05-17T17:29:50.551Z,99.90
2019-05-17T17:32:22.583Z,99.90
2019-05-17T17:34:54.031Z,99.90
2019-05-17T17:37:31.018Z,99.90
2019-05-17T17:40:10.789Z,99.90
2019-05-17T17:43:02.869Z,99.90
2019-05-17T17:45:34.715Z,99.90
2019-05-17T17:48:06.129Z,99.90
2019-05-17T17:50:38.350Z,99.90
2019-05-17T17:53:10.034Z,99.90
2019-05-17T17:55:41.974Z,99.90
2019-05-17T17:58:13.802Z,99.90
2019-05-17T18:00:45.964Z,99.90
2019-05-17T18:03:24.954Z,99.90
2019-05-17T18:06:02.184Z,99.90
2019-05-17T18:08:34.760Z,99.90
2019-05-17T18:11:06.402Z,99.90
2019-05-17T18:13:37.755Z,99.90
2019-05-17T18:16:09.461Z,99.90
2019-05-17T18:18:41.683Z,99.90
2019-05-17T18:21:14.067Z,99.90
2019-05-17T18:23:46.360Z,99.90
2019-05-17T18:26:18.172Z,99.90
2019-05-17T18:28:50.282Z,99.90
2019-05-17T18:31:23.148Z,99.90
2019-05-17T18:33:54.497Z,99.90
2019-05-17T18:36:27.077Z,99.90
2019-05-17T18:38:59.308Z,99.90
2019-05-17T18:41:31.804Z,99.90
2019-05-17T18:44:04.364Z,99.90
2019-05-17T18:46:40.443Z,99.90
2019-05-17T18:49:14.644Z,99.90
2019-05-17T18:51:47.382Z,99.90
2019-05-17T18:54:19.765Z,99.90
2019-05-17T18:56:52.205Z,99.90
2019-05-17T18:59:23.635Z,99.90
2019-05-17T19:01:55.905Z,99.90
2019-05-17T19:04:27.757Z,99.90
2019-05-17T19:07:00.521Z,99.90
2019-05-17T19:09:32.647Z,99.90
2019-05-17T19:12:04.630Z,99.90
2019-05-17T19:14:43.123Z,99.90
2019-05-17T19:17:11.009Z,99.90
2019-05-17T19:19:44.984Z,99.90
2019-05-17T19:22:18.748Z,99.90
2019-05-17T19:24:52.680Z,99.90
2019-05-17T19:27:24.071Z,99.90
2019-05-17T19:29:55.301Z,99.90
2019-05-17T19:32:26.804Z,99.90
2019-05-17T19:34:57.741Z,99.90
2019-05-17T19:37:29.186Z,99.90
2019-05-17T19:40:01.157Z,99.90
2019-05-17T19:42:33.327Z,99.90
2019-05-17T19:45:04.595Z,99.90
2019-05-17T19:47:36.469Z,99.90
2019-05-17T19:50:08.403Z,99.90
2019-05-17T19:52:39.726Z,99.90
2019-05-17T19:55:13.445Z,99.90
2019-05-17T19:57:45.451Z,99.90
2019-05-17T20:00:17.805Z,99.90
2019-05-17T20:02:50.470Z,99.90
2019-05-17T20:05:22.452Z,99.90
2019-05-17T20:07:54.365Z,99.90
2019-05-17T20:10:27.273Z,99.90
2019-05-17T20:12:58.885Z,99.90
2019-05-17T20:15:34.861Z,99.90
2019-05-17T20:18:05.924Z,99.90
2019-05-17T20:20:37.203Z,99.90
2019-05-17T20:23:08.793Z,99.90
2019-05-17T20:25:40.035Z,99.90
2019-05-17T20:28:11.520Z,99.90
2019-05-17T20:30:42.822Z,99.90
2019-05-17T20:33:14.439Z,99.90
2019-05-17T20:35:47.038Z,99.90
2019-05-17T20:38:18.584Z,99.90
2019-05-17T20:40:50.242Z,99.90
2019-05-17T20:43:25.152Z,99.90
2019-05-17T20:45:56.628Z,99.90
2019-05-17T20:48:29.005Z,99.90
2019-05-17T20:51:00.772Z,99.90
2019-05-17T20:53:35.467Z,99.90
2019-05-17T20:56:07.830Z,99.90
2019-05-17T20:58:40.020Z,99.90
2019-05-17T21:01:12.915Z,99.90
2019-05-17T21:03:46.120Z,99.90
2019-05-17T21:06:18.511Z,99.90
2019-05-17T21:08:50.474Z,99.90
2019-05-17T21:11:22.274Z,99.90
2019-05-17T21:13:54.390Z,99.90
2019-05-17T21:16:26.409Z,99.90
2019-05-17T21:18:57.871Z,99.90
2019-05-17T21:21:30.271Z,99.90
2019-05-17T21:24:02.274Z,99.90
2019-05-17T21:26:34.109Z,99.90
2019-05-17T21:29:05.844Z,99.90
2019-05-17T21:31:38.171Z,99.90
2019-05-17T21:34:10.451Z,99.90
2019-05-17T21:36:42.842Z,99.90
2019-05-17T21:39:14.711Z,99.90
2019-05-17T21:41:46.573Z,99.90
2019-05-17T21:44:18.327Z,99.90
2019-05-17T21:47:03.809Z,99.90
2019-05-17T21:49:22.648Z,99.90
2019-05-17T21:51:53.951Z,99.90
2019-05-17T21:54:25.451Z,99.90
2019-05-17T21:56:56.713Z,99.90
2019-05-17T21:59:28.872Z,99.90
2019-05-17T22:02:00.766Z,99.90
2019-05-17T22:04:33.104Z,99.90
2019-05-17T22:07:04.636Z,99.90
2019-05-17T22:09:36.913Z,99.90
2019-05-17T22:12:11.115Z,99.90
2019-05-17T22:14:42.333Z,99.90
2019-05-17T22:17:13.793Z,99.90
2019-05-17T22:19:45.878Z,99.90
2019-05-17T22:22:17.712Z,99.90
2019-05-17T22:24:49.637Z,99.90
2019-05-17T22:27:21.501Z,99.90
2019-05-17T22:29:53.085Z,99.90
2019-05-17T22:32:24.821Z,99.90
2019-05-17T22:34:56.359Z,99.90
2019-05-17T22:37:28.575Z,99.90
2019-05-17T22:40:00.848Z,99.90
2019-05-17T22:42:33.168Z,99.90
2019-05-17T22:45:05.975Z,99.90
2019-05-17T22:47:37.316Z,99.90
2019-05-17T22:50:11.471Z,99.90
2019-05-17T22:52:42.798Z,99.90
2019-05-17T22:55:15.791Z,99.90
2019-05-17T22:57:47.221Z,99.90
2019-05-17T23:00:18.799Z,99.90
2019-05-17T23:02:53.469Z,99.90
2019-05-17T23:05:26.448Z,99.90
2019-05-17T23:07:58.311Z,99.90
2019-05-17T23:10:29.756Z,99.90
2019-05-17T23:13:01.318Z,99.90
2019-05-17T23:15:36.643Z,99.90
2019-05-17T23:18:08.704Z,99.90
2019-05-17T23:20:41.073Z,99.90
2019-05-17T23:23:15.517Z,99.90
2019-05-17T23:25:49.407Z,99.90
2019-05-17T23:28:20.850Z,99.90
2019-05-17T23:30:52.573Z,99.90
2019-05-17T23:33:24.471Z,99.90
2019-05-17T23:35:56.612Z,99.90
2019-05-17T23:38:28.431Z,99.90
2019-05-17T23:41:01.162Z,99.90
2019-05-17T23:43:34.444Z,99.90
2019-05-17T23:46:07.536Z,99.90
2019-05-17T23:48:39.893Z,99.90
2019-05-17T23:51:11.881Z,99.90
2019-05-17T23:53:43.310Z,99.90
2019-05-17T23:56:15.553Z,99.90
2019-05-17T23:58:46.855Z,99.90
